F34 weather

Firebaugh Airport
Firebaugh, California, United States

Public forecast

Using degrees Fahrenheit for public forecast. Weather courtesy of forecast.io.

METAR (pilot weather report)

Closest report is Madera Municipal Airport, 18.6 nm (34.4 km) ENE. Retrieved 2019/05/27 05:53 UTC (1 hour ago):

KMAE 270553Z AUTO 36003KT 10SM CLR 11/08 A2999 RMK AO2 SLP154 6//// T01110083 10144 20106 51019 $

TAF (pilot weather forecast)

Closest forecast is Merced Regional Macready Field, 25.6 nm (47.4 km) N. Retrieved 2019/05/27 06:22 UTC (34 minutes ago):

TAF KMCE 270520Z 2706/2806 29004KT P6SM SCT050 BKN090 FM271800 31006KT P6SM BKN050 OVC090 FM280000 31006KT P6SM SCT050 BKN090 FM280300 31006KT P6SM FEW050 SCT090